This is the latest recevied weather packets stored in our database for station/object W6SNO-1. If no packets are shown the sender has not sent any weather packets the latest 10 day(s).
| Time | Temp. | Humidity | Pressure | Rain* | Wind** | Luminosity | Snow |
|---|---|---|---|---|---|---|---|
| 1787596781 | 23.89° C | 60% | 1015.5 hPa | 0 mm | - | 684 W/m² | - |
| 1787596476 | 23.89° C | 60% | 1015.6 hPa | 0 mm | - | 684 W/m² | - |
| 1787596176 | 24.44° C | 58% | 1015.6 hPa | 0 mm | - | 675 W/m² | - |
| 1787595872 | 23.89° C | 59% | 1015.4 hPa | 0 mm | - | 666 W/m² | - |
| 1787595567 | 23.89° C | 60% | 1015.5 hPa | 0 mm | - | 659 W/m² | - |
| 1787595263 | 23.33° C | 61% | 1015.3 hPa | 0 mm | - | 649 W/m² | - |
| 1787594962 | 22.78° C | 61% | 1015.5 hPa | 0 mm | - | 641 W/m² | - |
| 1787594658 | 22.78° C | 63% | 1015.5 hPa | 0 mm | - | 632 W/m² | - |
| 1787594356 | 22.78° C | 62% | 1015.6 hPa | 0 mm | - | 621 W/m² | - |
| 1787594051 | 22.22° C | 64% | 1015.6 hPa | 0 mm | - | 607 W/m² | - |
| 1787593751 | 22.22° C | 64% | 1015.6 hPa | 0 mm | - | 598 W/m² | - |
| 1787593446 | 21.67° C | 67% | 1015.6 hPa | 0 mm | - | 567 W/m² | - |
| 1787593141 | 21.67° C | 67% | 1015.6 hPa | 0 mm | - | 567 W/m² | - |
| 1787592836 | 21.11° C | 67% | 1015.6 hPa | 0 mm | - | 552 W/m² | - |
| 1787592531 | 21.11° C | 68% | 1015.6 hPa | 0 mm | - | 548 W/m² | - |
| 1787592229 | 20.56° C | 69% | 1015.6 hPa | 0 mm | - | 536 W/m² | - |
| 1787591926 | 20.56° C | 70% | 1015.4 hPa | 0 mm | - | 526 W/m² | - |
| 1787591621 | 20.56° C | 70% | 1015.6 hPa | 0 mm | - | 508 W/m² | - |
| 1787591317 | 20° C | 71% | 1015.4 hPa | 0 mm | - | 498 W/m² | - |
| 1787591012 | 19.44° C | 75% | 1015.6 hPa | 0 mm | - | 474 W/m² | - |
| 1787590708 | 19.44° C | 74% | 1015.5 hPa | 0 mm | - | 337 W/m² | - |
| 1787590403 | 19.44° C | 75% | 1015.5 hPa | 0 mm | - | 145 W/m² | - |
| 1787590098 | 18.33° C | 77% | 1015.2 hPa | 0 mm | - | 75 W/m² | - |
| 1787589794 | 18.33° C | 77% | 1015.3 hPa | 0 mm | - | 75 W/m² | - |
| 1787589489 | 18.33° C | 79% | 1015.4 hPa | 0 mm | - | 50 W/m² | - |
* Rain latest hour (hover to see other rain measurements)
** Current wind speed in m/s (hover to see current wind gust speed)